Time;durP1;ratioP1;P1;durP2;ratioP2;P2;SDS_P1;SDS_P2;PMS_P1;PMS_P2;Temp;Humidity;BMP_temperature;BMP_pressure;BME280_temperature;BME280_humidity;BME280_pressure;Samples;Min_cycle;Max_cycle;Signal;HPM_P1;HPM_P2
2023/12/29 00:00:09;;;;;;;60.78;41.13;;;11.80;99.90;;;;;;4994412;28;20026;-79
2023/12/29 00:02:34;;;;;;;62.55;45.20;;;11.80;99.90;;;;;;4998287;28;20493;-80
2023/12/29 00:05:00;;;;;;;60.75;43.15;;;11.80;99.90;;;;;;5002482;28;20030;-81
2023/12/29 00:07:26;;;;;;;55.47;39.78;;;11.80;99.90;;;;;;5004201;28;20470;-80
2023/12/29 00:09:52;;;;;;;67.07;44.85;;;11.70;99.90;;;;;;5010835;28;20030;-80
2023/12/29 00:12:17;;;;;;;63.08;42.03;;;11.70;99.90;;;;;;4996476;28;20036;-80
2023/12/29 00:14:43;;;;;;;63.33;43.97;;;11.70;99.90;;;;;;5012238;28;21806;-79
2023/12/29 00:17:09;;;;;;;64.68;43.70;;;11.70;99.90;;;;;;5013207;28;20104;-80
2023/12/29 00:19:35;;;;;;;60.35;43.83;;;11.70;99.90;;;;;;5013324;28;20041;-80
2023/12/29 00:22:02;;;;;;;59.47;40.25;;;11.60;99.90;;;;;;5013647;28;20438;-81
2023/12/29 00:24:31;;;;;;;72.22;50.22;;;11.60;99.90;;;;;;5000861;28;20029;-81
2023/12/29 00:26:58;;;;;;;58.05;40.05;;;11.60;99.90;;;;;;5012690;28;20030;-80
2023/12/29 00:29:23;;;;;;;66.30;46.10;;;11.60;99.90;;;;;;4996022;28;20030;-81
2023/12/29 00:31:49;;;;;;;57.15;40.30;;;11.60;99.90;;;;;;4999569;28;20398;-81
2023/12/29 00:34:15;;;;;;;53.40;38.33;;;11.50;99.90;;;;;;5005941;28;20057;-81
2023/12/29 00:36:40;;;;;;;56.75;40.70;;;11.50;99.90;;;;;;5013578;28;20034;-80
2023/12/29 00:39:06;;;;;;;60.38;39.70;;;11.50;99.90;;;;;;5012019;28;20037;-81
2023/12/29 00:41:32;;;;;;;57.75;40.95;;;11.50;99.90;;;;;;5009377;28;20030;-81
2023/12/29 00:43:58;;;;;;;57.33;39.92;;;11.50;99.90;;;;;;5005229;28;20026;-81
2023/12/29 00:46:23;;;;;;;60.47;40.67;;;11.40;99.90;;;;;;5008153;28;20034;-81
2023/12/29 00:48:49;;;;;;;55.10;39.90;;;11.40;99.90;;;;;;5009752;28;20033;-81
2023/12/29 00:51:15;;;;;;;58.67;39.70;;;11.50;99.90;;;;;;5012851;28;20042;-81
2023/12/29 00:53:41;;;;;;;51.05;35.08;;;11.50;99.90;;;;;;5005531;28;20034;-80
2023/12/29 00:56:12;;;;;;;48.95;35.75;;;11.50;99.90;;;;;;5011294;28;20108;-80
2023/12/29 00:58:38;;;;;;;73.88;51.25;;;11.50;99.90;;;;;;5013172;28;20371;-80
2023/12/29 01:01:08;;;;;;;63.70;45.40;;;11.50;99.90;;;;;;5004344;28;20018;-80
2023/12/29 01:03:34;;;;;;;43.72;31.90;;;11.40;99.90;;;;;;5002334;28;20042;-80
2023/12/29 01:06:00;;;;;;;48.72;34.42;;;11.40;99.90;;;;;;5012951;28;20029;-81
2023/12/29 01:08:25;;;;;;;50.88;34.90;;;11.30;99.90;;;;;;5012042;28;20033;-80
2023/12/29 01:10:51;;;;;;;51.83;37.13;;;11.40;99.90;;;;;;5000920;28;20479;-81
2023/12/29 01:13:17;;;;;;;46.60;33.88;;;11.30;99.90;;;;;;4998606;28;20026;-80
2023/12/29 01:15:45;;;;;;;50.53;37.55;;;11.40;99.90;;;;;;4993573;28;20471;-80
2023/12/29 01:18:11;;;;;;;53.13;38.25;;;11.40;99.90;;;;;;4993563;28;20026;-80
2023/12/29 01:20:39;;;;;;;53.25;36.17;;;11.40;99.90;;;;;;5002497;28;20022;-81
2023/12/29 01:23:05;;;;;;;53.40;37.10;;;11.40;99.90;;;;;;5012609;28;20024;-81
2023/12/29 01:25:31;;;;;;;53.08;36.35;;;11.40;99.90;;;;;;5011816;28;20088;-82
2023/12/29 01:27:57;;;;;;;52.05;37.95;;;11.40;99.90;;;;;;5013253;28;20026;-82
2023/12/29 01:30:23;;;;;;;53.63;37.33;;;11.40;99.90;;;;;;5002284;28;20030;-82
2023/12/29 01:32:49;;;;;;;52.95;36.35;;;11.50;99.90;;;;;;5005419;28;20033;-82
2023/12/29 01:35:15;;;;;;;50.15;38.30;;;11.50;99.90;;;;;;5004275;28;20463;-80
2023/12/29 01:37:41;;;;;;;74.10;50.33;;;11.50;99.90;;;;;;4996229;28;20030;-80
2023/12/29 01:40:08;;;;;;;52.80;38.60;;;11.40;99.90;;;;;;5008406;28;20026;-81
2023/12/29 01:42:33;;;;;;;56.13;38.83;;;11.40;99.90;;;;;;5003691;28;20034;-82
2023/12/29 01:44:59;;;;;;;47.03;35.40;;;11.40;99.90;;;;;;5006431;28;20106;-81
2023/12/29 01:47:25;;;;;;;60.67;41.60;;;11.40;99.90;;;;;;5011349;28;20080;-81
2023/12/29 01:49:51;;;;;;;53.75;39.17;;;11.40;99.90;;;;;;4998361;28;20069;-81
2023/12/29 01:52:17;;;;;;;52.35;38.38;;;11.40;99.90;;;;;;5013177;28;20030;-81
2023/12/29 01:54:45;;;;;;;55.45;38.33;;;11.40;99.90;;;;;;5004905;28;20082;-81
2023/12/29 01:57:12;;;;;;;43.58;31.35;;;11.40;99.90;;;;;;4997934;28;20030;-81
2023/12/29 01:59:40;;;;;;;62.25;41.92;;;11.40;99.90;;;;;;4992130;28;20040;-79
2023/12/29 02:02:06;;;;;;;39.35;29.90;;;11.30;99.90;;;;;;5006693;28;20101;-81
2023/12/29 02:04:33;;;;;;;52.17;32.35;;;11.30;99.90;;;;;;5004011;28;20112;-81
2023/12/29 02:06:58;;;;;;;54.65;37.75;;;11.20;99.90;;;;;;4999043;28;20026;-82
2023/12/29 02:09:24;;;;;;;48.33;34.92;;;11.20;99.90;;;;;;5006136;28;20026;-81
2023/12/29 02:11:50;;;;;;;50.97;35.80;;;11.20;99.90;;;;;;5004937;28;20042;-81
2023/12/29 02:14:17;;;;;;;46.08;34.58;;;11.20;99.90;;;;;;5002432;28;20034;-81
2023/12/29 02:17:03;;;;;;;49.65;35.33;;;11.20;99.90;;;;;;4998725;28;20035;-80
2023/12/29 02:19:41;;;;;;;57.40;38.05;;;11.20;99.90;;;;;;5005784;28;20109;-80
2023/12/29 02:22:08;;;;;;;54.83;36.85;;;11.30;99.90;;;;;;4998711;28;20678;-80
2023/12/29 02:24:37;;;;;;;57.38;38.70;;;11.30;99.90;;;;;;5011922;28;20030;-80
2023/12/29 02:27:21;;;;;;;59.20;38.20;;;11.30;99.90;;;;;;4995602;28;20026;-81
2023/12/29 02:30:13;;;;;;;55.88;37.53;;;11.30;99.90;;;;;;5016848;28;20398;-81
2023/12/29 02:32:46;;;;;;;55.25;37.78;;;11.30;99.90;;;;;;5002763;28;20113;-82
2023/12/29 02:35:17;;;;;;;51.38;37.28;;;11.30;99.90;;;;;;5012154;28;20093;-81
2023/12/29 02:37:43;;;;;;;59.95;40.05;;;11.30;99.90;;;;;;4998157;28;20481;-82
2023/12/29 02:40:09;;;;;;;57.13;40.42;;;11.40;99.90;;;;;;5008874;28;20117;-81
2023/12/29 02:42:35;;;;;;;54.85;37.38;;;11.40;99.90;;;;;;4996264;28;20085;-82
2023/12/29 02:45:00;;;;;;;53.20;37.20;;;11.30;99.90;;;;;;4996971;28;20030;-82
2023/12/29 02:47:27;;;;;;;53.13;36.30;;;11.30;99.90;;;;;;5005098;28;20407;-82
2023/12/29 02:49:52;;;;;;;61.08;41.88;;;11.30;99.90;;;;;;5012944;28;20028;-81
2023/12/29 02:52:18;;;;;;;51.35;36.70;;;11.30;99.90;;;;;;5005636;28;20041;-82
2023/12/29 02:54:44;;;;;;;55.50;36.58;;;11.30;99.90;;;;;;5006975;28;20549;-82
2023/12/29 02:57:09;;;;;;;45.20;31.70;;;11.30;99.90;;;;;;5012518;28;20407;-82
2023/12/29 02:59:37;;;;;;;46.67;31.40;;;11.20;99.90;;;;;;5011958;28;20160;-82
2023/12/29 03:02:03;;;;;;;47.40;33.08;;;11.20;99.90;;;;;;5009269;28;20030;-82
2023/12/29 03:04:29;;;;;;;52.28;32.30;;;11.10;99.90;;;;;;4994736;28;20061;-81
2023/12/29 03:06:55;;;;;;;52.88;33.75;;;11.10;99.90;;;;;;5012162;28;20060;-82
2023/12/29 03:09:21;;;;;;;48.75;35.58;;;11.10;99.90;;;;;;5003784;28;20026;-82
2023/12/29 03:11:46;;;;;;;44.10;30.83;;;11.20;99.90;;;;;;5000462;28;20065;-81
2023/12/29 03:14:14;;;;;;;53.72;37.92;;;11.20;99.90;;;;;;5013293;28;20152;-81
2023/12/29 03:16:40;;;;;;;45.35;31.98;;;11.10;99.90;;;;;;5003922;28;20053;-82
2023/12/29 03:19:05;;;;;;;54.55;35.47;;;11.20;99.90;;;;;;5009626;28;20041;-81
2023/12/29 03:21:31;;;;;;;46.55;33.20;;;11.10;99.90;;;;;;5008569;28;20045;-81
2023/12/29 03:23:57;;;;;;;46.38;29.73;;;11.10;99.90;;;;;;5009228;28;20502;-81
2023/12/29 03:26:22;;;;;;;45.05;31.02;;;11.10;99.90;;;;;;5013424;28;20040;-81
2023/12/29 03:28:48;;;;;;;41.75;28.88;;;11.10;99.90;;;;;;5014272;28;20034;-81
2023/12/29 03:31:14;;;;;;;47.58;31.83;;;11.10;99.90;;;;;;5014596;28;20070;-81
2023/12/29 03:33:40;;;;;;;48.55;32.72;;;11.10;99.90;;;;;;5013835;28;20084;-81
2023/12/29 03:36:07;;;;;;;44.00;29.98;;;11.10;99.90;;;;;;5001298;28;20042;-81
2023/12/29 03:38:33;;;;;;;41.40;29.45;;;11.10;99.90;;;;;;5002999;28;20030;-81
2023/12/29 03:40:59;;;;;;;41.85;28.75;;;11.10;99.90;;;;;;5012890;28;20072;-81
2023/12/29 03:43:24;;;;;;;44.67;30.30;;;11.10;99.90;;;;;;5000646;28;20478;-81
2023/12/29 03:45:50;;;;;;;42.15;28.58;;;11.00;99.90;;;;;;5004185;28;20050;-80
2023/12/29 03:48:16;;;;;;;42.33;26.70;;;11.00;99.90;;;;;;5009559;28;20104;-80
2023/12/29 03:50:41;;;;;;;38.78;28.35;;;11.00;99.90;;;;;;5006584;28;20041;-80
2023/12/29 03:53:07;;;;;;;39.10;27.63;;;11.00;99.90;;;;;;5007719;28;20025;-80
2023/12/29 03:55:33;;;;;;;39.50;27.60;;;11.00;99.90;;;;;;5026159;28;20037;-81
2023/12/29 03:57:59;;;;;;;41.15;28.50;;;10.90;99.90;;;;;;5012758;28;20037;-79
2023/12/29 04:00:25;;;;;;;39.72;26.95;;;10.90;99.90;;;;;;5008585;28;20030;-80
2023/12/29 04:02:51;;;;;;;43.40;29.25;;;11.00;99.90;;;;;;5001415;28;20088;-80
2023/12/29 04:05:16;;;;;;;42.28;28.05;;;11.00;99.90;;;;;;5011155;28;20026;-80
2023/12/29 04:07:42;;;;;;;41.15;28.48;;;11.00;99.90;;;;;;5009872;28;20400;-80
2023/12/29 04:10:08;;;;;;;42.30;27.30;;;11.00;99.90;;;;;;5007891;28;20033;-80
2023/12/29 04:12:34;;;;;;;40.22;26.50;;;11.00;99.90;;;;;;5009113;28;20378;-80
2023/12/29 04:15:00;;;;;;;40.08;27.42;;;11.10;99.80;;;;;;5003624;28;20038;-81
2023/12/29 04:17:26;;;;;;;39.08;25.98;;;11.10;99.60;;;;;;5006355;28;20026;-81
2023/12/29 04:19:52;;;;;;;38.22;25.08;;;11.10;99.60;;;;;;5008417;28;20058;-81
2023/12/29 04:22:18;;;;;;;34.38;23.35;;;11.10;99.40;;;;;;5009622;28;20022;-80
2023/12/29 04:24:44;;;;;;;40.53;26.20;;;11.10;99.30;;;;;;5003262;28;20486;-81
2023/12/29 04:27:10;;;;;;;26.52;17.58;;;11.10;99.00;;;;;;5000453;28;20027;-81
2023/12/29 04:29:35;;;;;;;31.67;21.50;;;11.00;98.00;;;;;;5025686;28;20037;-81
2023/12/29 04:32:01;;;;;;;35.53;23.25;;;11.00;98.50;;;;;;5000074;28;20033;-81
2023/12/29 04:34:27;;;;;;;31.55;22.33;;;11.00;98.00;;;;;;5006851;28;20033;-82
2023/12/29 04:36:53;;;;;;;31.15;20.80;;;11.00;97.80;;;;;;5008489;28;20037;-82
2023/12/29 04:39:18;;;;;;;23.98;16.92;;;11.00;97.50;;;;;;5005949;28;20074;-81
2023/12/29 04:41:44;;;;;;;30.00;21.33;;;10.90;97.60;;;;;;5006943;28;20045;-82
2023/12/29 04:44:10;;;;;;;21.85;15.05;;;10.90;97.10;;;;;;5024409;28;20030;-81
2023/12/29 04:46:35;;;;;;;23.75;16.58;;;10.80;96.90;;;;;;5007932;28;20024;-81
2023/12/29 04:49:02;;;;;;;26.45;17.95;;;10.80;97.30;;;;;;5011419;28;20393;-81
2023/12/29 04:51:28;;;;;;;26.67;18.23;;;10.80;97.50;;;;;;5008520;28;20056;-80
2023/12/29 04:53:53;;;;;;;26.70;17.73;;;10.90;97.50;;;;;;5006424;28;20049;-80
2023/12/29 04:56:19;;;;;;;27.60;18.13;;;11.00;97.40;;;;;;5004981;28;20080;-80
2023/12/29 04:58:45;;;;;;;28.02;18.35;;;11.00;97.10;;;;;;5004242;28;20073;-80
2023/12/29 05:01:11;;;;;;;25.10;17.25;;;11.00;97.00;;;;;;5000138;28;20029;-81
2023/12/29 05:03:36;;;;;;;24.20;18.15;;;11.00;96.80;;;;;;5003202;28;20118;-80
2023/12/29 05:06:02;;;;;;;25.95;17.77;;;11.10;96.70;;;;;;5011874;28;20104;-80
2023/12/29 05:08:28;;;;;;;25.00;16.52;;;11.10;96.60;;;;;;5010727;28;20022;-80
2023/12/29 05:10:55;;;;;;;27.50;18.83;;;11.10;96.60;;;;;;5026725;28;20048;-80
2023/12/29 05:13:21;;;;;;;25.63;16.90;;;11.10;96.60;;;;;;5029025;28;20113;-80
2023/12/29 05:15:47;;;;;;;24.17;17.17;;;11.10;96.50;;;;;;5009240;28;20100;-80
2023/12/29 05:18:12;;;;;;;24.92;17.23;;;11.10;96.40;;;;;;5000990;28;20030;-80
2023/12/29 05:20:38;;;;;;;28.00;18.90;;;11.10;96.50;;;;;;5005280;28;20018;-80
2023/12/29 05:23:04;;;;;;;25.45;18.60;;;11.10;96.50;;;;;;5007825;28;20099;-81
2023/12/29 05:25:29;;;;;;;27.65;18.75;;;11.10;96.60;;;;;;5010444;28;20049;-81
2023/12/29 05:27:55;;;;;;;26.77;17.60;;;11.10;96.50;;;;;;5008817;28;20033;-81
2023/12/29 05:30:21;;;;;;;27.85;18.25;;;11.10;96.50;;;;;;5007857;28;20030;-80
2023/12/29 05:32:46;;;;;;;29.05;17.45;;;11.10;96.50;;;;;;5003284;28;20050;-80
2023/12/29 05:35:12;;;;;;;23.63;16.50;;;11.20;96.40;;;;;;5005886;28;20077;-80
2023/12/29 05:37:38;;;;;;;24.13;16.35;;;11.10;96.20;;;;;;4996468;28;20069;-81
2023/12/29 05:40:04;;;;;;;22.38;15.43;;;11.10;96.30;;;;;;4995057;28;20046;-81
2023/12/29 05:42:30;;;;;;;21.58;15.35;;;11.10;95.90;;;;;;4999873;28;20480;-81
2023/12/29 05:44:55;;;;;;;24.25;16.33;;;11.20;95.90;;;;;;5011692;28;20026;-80
2023/12/29 05:47:21;;;;;;;22.77;16.25;;;11.20;96.00;;;;;;5014047;28;20037;-80
2023/12/29 05:49:47;;;;;;;23.65;15.18;;;11.20;95.70;;;;;;5000348;28;20046;-80
2023/12/29 05:52:12;;;;;;;24.25;16.67;;;11.20;95.60;;;;;;5009459;28;20041;-80
2023/12/29 05:54:38;;;;;;;21.85;14.88;;;11.10;95.60;;;;;;5010639;28;20156;-80
2023/12/29 05:57:04;;;;;;;22.02;15.10;;;11.20;95.60;;;;;;5001702;28;20025;-80
2023/12/29 05:59:29;;;;;;;21.40;14.57;;;11.20;95.50;;;;;;5003775;28;20447;-79
2023/12/29 06:01:56;;;;;;;18.85;13.10;;;11.20;95.40;;;;;;5008367;28;20450;-80
2023/12/29 06:04:22;;;;;;;22.40;13.75;;;11.20;95.20;;;;;;5004647;28;20066;-80
2023/12/29 06:06:49;;;;;;;21.00;13.45;;;11.20;95.00;;;;;;5014092;28;20033;-80
2023/12/29 06:09:14;;;;;;;18.20;12.45;;;11.20;94.90;;;;;;5003177;28;20386;-80
2023/12/29 06:11:40;;;;;;;19.50;13.25;;;11.20;94.70;;;;;;5009846;28;20030;-79
2023/12/29 06:14:06;;;;;;;17.10;11.82;;;11.20;94.60;;;;;;5013199;28;20069;-80
2023/12/29 06:16:33;;;;;;;18.25;13.25;;;11.30;94.50;;;;;;5008898;28;20030;-80
2023/12/29 06:18:59;;;;;;;17.25;12.80;;;11.20;94.50;;;;;;5002360;28;20479;-79
2023/12/29 06:21:24;;;;;;;19.45;12.80;;;11.20;94.50;;;;;;5008283;28;20025;-80
2023/12/29 06:23:50;;;;;;;19.10;12.40;;;11.20;94.60;;;;;;5013927;28;20458;-80
2023/12/29 06:26:17;;;;;;;20.70;13.13;;;11.20;94.70;;;;;;5018481;28;20489;-80
2023/12/29 06:28:47;;;;;;;20.70;12.73;;;11.30;94.70;;;;;;5017997;28;20471;-80
2023/12/29 06:31:13;;;;;;;21.15;12.95;;;11.20;94.70;;;;;;5012830;28;20032;-79
2023/12/29 06:33:42;;;;;;;19.13;13.35;;;11.30;94.70;;;;;;5008771;28;20030;-80
2023/12/29 06:36:09;;;;;;;17.67;12.25;;;11.30;94.80;;;;;;5010798;28;20034;-80
2023/12/29 06:38:35;;;;;;;23.00;16.27;;;11.30;94.70;;;;;;5001883;28;20030;-89
2023/12/29 06:41:03;;;;;;;19.50;14.57;;;11.20;94.40;;;;;;4997412;28;20026;-88
2023/12/29 06:43:29;;;;;;;18.27;12.55;;;11.10;94.40;;;;;;5011806;28;20033;-88
2023/12/29 06:45:55;;;;;;;19.63;12.95;;;11.10;94.60;;;;;;5031446;28;20018;-87
2023/12/29 06:48:21;;;;;;;22.08;14.55;;;11.00;94.70;;;;;;5007714;28;20026;-85
2023/12/29 06:50:46;;;;;;;26.73;17.00;;;11.00;94.80;;;;;;4997074;28;20490;-84
2023/12/29 06:53:12;;;;;;;21.90;14.63;;;11.00;94.90;;;;;;5013976;28;20033;-86
2023/12/29 06:55:38;;;;;;;28.92;18.27;;;10.90;94.80;;;;;;5004409;28;20470;-89
2023/12/29 06:58:04;;;;;;;16.85;11.18;;;10.80;94.40;;;;;;5000668;28;20603;-87
2023/12/29 07:00:30;;;;;;;22.00;15.48;;;10.70;94.60;;;;;;5017493;28;20027;-89
2023/12/29 07:02:56;;;;;;;17.25;12.70;;;10.60;94.70;;;;;;5012259;28;20038;-82
2023/12/29 07:05:22;;;;;;;26.75;16.10;;;10.50;94.90;;;;;;5013425;28;20033;-82
2023/12/29 07:07:47;;;;;;;21.40;15.07;;;10.50;95.10;;;;;;5010721;28;20572;-82
2023/12/29 07:10:13;;;;;;;22.65;14.38;;;10.50;95.20;;;;;;5004825;28;20450;-82
2023/12/29 07:12:42;;;;;;;20.23;13.90;;;10.50;95.30;;;;;;5013017;28;20037;-81
2023/12/29 07:15:08;;;;;;;20.98;14.02;;;10.50;95.40;;;;;;5001944;28;20026;-81
2023/12/29 07:17:34;;;;;;;20.13;14.27;;;10.60;95.50;;;;;;5002096;28;20029;-82
2023/12/29 07:20:00;;;;;;;22.90;14.20;;;10.60;95.40;;;;;;5012602;28;20486;-82
2023/12/29 07:22:26;;;;;;;21.83;13.20;;;10.70;95.30;;;;;;5004525;28;20096;-82
2023/12/29 07:24:53;;;;;;;20.73;12.45;;;10.70;95.40;;;;;;5003811;28;20534;-83
2023/12/29 07:27:19;;;;;;;24.10;14.38;;;10.80;96.10;;;;;;5000664;28;20109;-82
2023/12/29 07:29:44;;;;;;;20.67;15.30;;;10.90;95.50;;;;;;5008265;28;20073;-83
2023/12/29 07:32:10;;;;;;;22.35;14.63;;;10.90;95.50;;;;;;4999703;28;20034;-84
2023/12/29 07:34:36;;;;;;;18.88;13.73;;;10.90;95.30;;;;;;5010173;28;20022;-86
2023/12/29 07:37:01;;;;;;;23.67;15.55;;;10.90;95.30;;;;;;5005712;28;20146;-88
2023/12/29 07:39:27;;;;;;;21.45;15.10;;;10.90;95.20;;;;;;5002954;28;20412;-88
2023/12/29 07:41:53;;;;;;;21.33;14.90;;;10.90;95.30;;;;;;5006140;28;20033;-87
2023/12/29 07:44:19;;;;;;;18.00;13.85;;;10.90;95.30;;;;;;5001629;28;20018;-86
2023/12/29 07:46:45;;;;;;;22.55;15.05;;;10.90;95.30;;;;;;5006211;28;20487;-85
2023/12/29 07:49:10;;;;;;;21.20;14.85;;;10.90;95.20;;;;;;5012398;28;20057;-84
2023/12/29 07:51:40;;;;;;;20.05;13.52;;;10.80;95.10;;;;;;5012886;28;20513;-84
2023/12/29 07:54:07;;;;;;;24.08;15.38;;;10.90;95.10;;;;;;5010494;28;20030;-85
2023/12/29 07:56:33;;;;;;;23.67;14.15;;;10.80;95.10;;;;;;5011198;28;20042;-84
2023/12/29 07:58:59;;;;;;;23.55;15.73;;;10.80;95.20;;;;;;5012773;28;20037;-87
2023/12/29 08:01:25;;;;;;;23.27;14.52;;;10.80;95.10;;;;;;5011834;28;20040;-86
2023/12/29 08:03:51;;;;;;;22.63;15.82;;;10.90;95.20;;;;;;5007367;28;20424;-86
2023/12/29 08:06:16;;;;;;;20.55;13.88;;;10.90;95.20;;;;;;5014351;28;20109;-86
2023/12/29 08:08:54;;;;;;;20.90;14.57;;;10.90;95.30;;;;;;5013146;28;20037;-87
2023/12/29 08:11:19;;;;;;;20.25;13.88;;;10.90;95.30;;;;;;5012368;28;20060;-86
2023/12/29 08:13:47;;;;;;;20.10;14.10;;;10.90;95.50;;;;;;5014682;28;20088;-86
2023/12/29 08:16:13;;;;;;;22.90;15.23;;;11.00;95.20;;;;;;5012903;28;20026;-86
2023/12/29 08:18:39;;;;;;;25.65;14.65;;;11.00;95.30;;;;;;5029647;28;20100;-87
2023/12/29 08:21:05;;;;;;;24.02;15.63;;;11.00;95.40;;;;;;5014406;28;20025;-87
2023/12/29 08:23:30;;;;;;;23.55;15.80;;;11.00;95.30;;;;;;5012841;28;20022;-87
2023/12/29 08:25:58;;;;;;;24.95;16.00;;;11.00;95.30;;;;;;5013401;28;20605;-87
2023/12/29 08:28:24;;;;;;;21.33;15.48;;;11.00;95.30;;;;;;5014479;28;20034;-88
2023/12/29 08:30:50;;;;;;;20.45;14.65;;;11.00;95.40;;;;;;5014579;28;20021;-87
2023/12/29 08:33:15;;;;;;;22.65;15.15;;;11.10;95.40;;;;;;5014084;28;20045;-87
2023/12/29 08:35:41;;;;;;;20.95;14.52;;;11.10;95.40;;;;;;5015511;28;20029;-87
2023/12/29 08:38:07;;;;;;;25.42;16.73;;;11.00;95.30;;;;;;5020188;28;20474;-87
2023/12/29 08:40:33;;;;;;;25.08;15.52;;;11.10;95.40;;;;;;5013453;28;20029;-83
2023/12/29 08:43:01;;;;;;;22.23;15.88;;;11.00;95.50;;;;;;5013013;28;20029;-83
2023/12/29 08:45:27;;;;;;;26.30;15.85;;;10.90;95.60;;;;;;5013560;28;20033;-82
2023/12/29 08:47:52;;;;;;;25.40;17.00;;;11.00;95.80;;;;;;5013520;28;20383;-82
2023/12/29 08:50:18;;;;;;;28.98;16.45;;;11.00;95.80;;;;;;5013709;28;20037;-82
2023/12/29 08:52:43;;;;;;;21.65;15.23;;;11.00;95.80;;;;;;5013568;28;20416;-88
2023/12/29 08:55:09;;;;;;;25.95;16.08;;;11.00;95.80;;;;;;5013408;28;20151;-86
2023/12/29 08:57:35;;;;;;;23.05;16.02;;;11.00;95.80;;;;;;5013552;28;20757;-81
2023/12/29 09:00:01;;;;;;;21.63;15.25;;;11.00;95.80;;;;;;5034530;28;20365;-86
2023/12/29 09:02:27;;;;;;;24.35;16.38;;;11.10;95.80;;;;;;5013215;28;20482;-82
2023/12/29 09:04:52;;;;;;;23.55;14.63;;;11.10;95.80;;;;;;5012653;28;20052;-87
2023/12/29 09:07:18;;;;;;;21.42;14.77;;;11.10;95.80;;;;;;5014609;28;20030;-87
2023/12/29 09:09:44;;;;;;;23.88;14.65;;;11.10;95.80;;;;;;5014515;28;20034;-86
2023/12/29 09:12:09;;;;;;;21.73;15.13;;;11.10;95.90;;;;;;5014554;28;20450;-86
2023/12/29 09:14:35;;;;;;;20.55;14.18;;;11.10;95.90;;;;;;5014619;28;20457;-87
2023/12/29 09:17:01;;;;;;;24.73;15.85;;;11.10;95.90;;;;;;5012452;28;20030;-80
2023/12/29 09:19:27;;;;;;;31.80;20.65;;;11.10;95.90;;;;;;5009826;28;20537;-87
2023/12/29 09:21:53;;;;;;;22.73;15.38;;;11.00;95.80;;;;;;5012575;28;20033;-88
2023/12/29 09:24:19;;;;;;;18.67;13.13;;;10.80;96.10;;;;;;5014079;28;20481;-81
2023/12/29 09:26:45;;;;;;;34.35;20.55;;;10.70;96.40;;;;;;5008035;28;20108;-81
2023/12/29 09:29:10;;;;;;;23.85;17.38;;;10.70;96.60;;;;;;5012637;28;20120;-80
2023/12/29 09:31:36;;;;;;;23.02;15.60;;;10.70;96.60;;;;;;5014861;28;20082;-81
2023/12/29 09:34:02;;;;;;;26.20;17.02;;;10.70;96.70;;;;;;5011641;28;20030;-88
2023/12/29 09:36:28;;;;;;;29.90;19.05;;;10.60;96.80;;;;;;5014840;28;20479;-81
2023/12/29 09:38:54;;;;;;;28.10;18.77;;;10.70;96.90;;;;;;5017562;28;20041;-85
2023/12/29 09:41:23;;;;;;;18.02;12.25;;;10.70;96.90;;;;;;5016701;28;20029;-81
2023/12/29 09:43:50;;;;;;;21.67;15.07;;;10.60;97.00;;;;;;5016625;28;20025;-85
2023/12/29 09:46:20;;;;;;;24.55;15.07;;;10.60;97.10;;;;;;5016825;28;20518;-82
2023/12/29 09:48:46;;;;;;;;;;;10.60;97.10;;;;;;5024199;28;20124;-86
2023/12/29 09:51:15;;;;;;;21.25;14.10;;;10.70;97.20;;;;;;5018252;28;19905;-86
2023/12/29 09:53:41;;;;;;;18.42;13.65;;;10.70;97.10;;;;;;5016099;28;20489;-87
2023/12/29 09:56:09;;;;;;;22.52;13.63;;;10.70;97.10;;;;;;5013130;28;20034;-82
2023/12/29 09:58:37;;;;;;;24.58;15.88;;;10.70;97.10;;;;;;5014895;28;20043;-79
2023/12/29 10:01:06;;;;;;;21.65;14.98;;;10.80;97.20;;;;;;5015455;28;20014;-79
2023/12/29 10:03:33;;;;;;;18.83;14.18;;;10.80;97.10;;;;;;5023063;28;20046;-79
2023/12/29 10:06:03;;;;;;;21.67;14.90;;;10.80;97.20;;;;;;5013925;28;20026;-79
2023/12/29 10:08:29;;;;;;;;;;;10.90;97.20;;;;;;5015463;28;20072;-80
2023/12/29 10:11:00;;;;;;;37.92;22.73;;;11.00;97.10;;;;;;5014008;28;19949;-80
2023/12/29 10:13:28;;;;;;;39.03;24.98;;;11.00;97.00;;;;;;5015423;28;20034;-80
2023/12/29 10:16:02;;;;;;;22.33;16.08;;;11.00;96.80;;;;;;5015047;28;20041;-81
2023/12/29 10:18:38;;;;;;;23.08;16.48;;;10.90;97.70;;;;;;5013546;28;20037;-81
2023/12/29 10:21:56;;;;;;;23.80;16.10;;;10.80;97.40;;;;;;5012571;28;20113;-81
2023/12/29 10:24:22;;;;;;;33.42;22.27;;;10.80;97.30;;;;;;5002911;28;20038;-83
2023/12/29 10:26:50;;;;;;;22.80;16.60;;;10.80;97.20;;;;;;5015825;28;20034;-82
2023/12/29 10:29:18;;;;;;;24.30;15.45;;;10.80;97.30;;;;;;5015514;28;20037;-81
2023/12/29 10:31:44;;;;;;;37.25;24.02;;;10.80;97.40;;;;;;5015559;28;20034;-86
2023/12/29 10:34:28;;;;;;;38.35;25.13;;;10.80;97.20;;;;;;5014440;28;20052;-82
2023/12/29 10:36:55;;;;;;;29.80;19.30;;;10.50;97.20;;;;;;5014059;28;20042;-83
2023/12/29 10:39:21;;;;;;;27.52;19.83;;;10.50;97.50;;;;;;5015585;28;20022;-81
2023/12/29 10:41:46;;;;;;;25.15;17.73;;;10.40;97.60;;;;;;5020925;28;20079;-81
2023/12/29 10:44:12;;;;;;;32.38;19.40;;;10.30;97.80;;;;;;5027247;28;20096;-81
2023/12/29 10:46:38;;;;;;;23.17;15.55;;;10.30;97.90;;;;;;5013121;28;20034;-81
2023/12/29 10:49:22;;;;;;;24.20;16.75;;;10.30;97.90;;;;;;4998292;28;20096;-81
2023/12/29 10:51:48;;;;;;;21.42;15.55;;;10.40;97.80;;;;;;5016270;28;20413;-81
2023/12/29 10:54:23;;;;;;;19.08;13.88;;;10.40;97.80;;;;;;5015322;28;20036;-81
2023/12/29 10:57:02;;;;;;;21.35;14.35;;;10.40;97.80;;;;;;5012606;28;20049;-85
2023/12/29 10:59:28;;;;;;;19.15;13.25;;;10.50;97.70;;;;;;5014454;28;20074;-82
2023/12/29 11:01:54;;;;;;;23.23;16.33;;;10.60;97.60;;;;;;5009991;28;20394;-81
2023/12/29 11:04:22;;;;;;;20.20;14.15;;;10.60;97.50;;;;;;5012155;28;20042;-81
2023/12/29 11:06:51;;;;;;;24.48;15.68;;;10.60;97.60;;;;;;5014003;28;20030;-82
2023/12/29 11:09:30;;;;;;;23.20;16.73;;;10.60;97.50;;;;;;5015050;28;20022;-83
2023/12/29 11:12:03;;;;;;;40.20;27.05;;;10.60;97.60;;;;;;5015819;28;20040;-82
2023/12/29 11:14:29;;;;;;;21.13;15.32;;;10.50;97.50;;;;;;5015013;28;20032;-83
2023/12/29 11:17:00;;;;;;;22.98;15.48;;;10.50;97.80;;;;;;5015079;28;20026;-82
2023/12/29 11:19:26;;;;;;;25.67;18.38;;;10.50;97.80;;;;;;5015211;28;20029;-82
2023/12/29 11:21:54;;;;;;;27.92;20.33;;;10.60;97.80;;;;;;5015291;28;20033;-82
2023/12/29 11:24:21;;;;;;;33.75;21.95;;;10.60;97.80;;;;;;5014955;28;20017;-81
2023/12/29 11:26:48;;;;;;;23.00;16.70;;;10.50;97.80;;;;;;5022238;28;20099;-81
2023/12/29 11:29:16;;;;;;;26.52;18.88;;;10.60;97.80;;;;;;5035027;28;20038;-81
2023/12/29 11:31:43;;;;;;;43.65;26.90;;;10.60;98.10;;;;;;5035239;28;20046;-81
2023/12/29 11:34:25;;;;;;;35.28;22.20;;;10.70;97.90;;;;;;5024440;28;20483;-81
2023/12/29 11:36:57;;;;;;;31.45;21.27;;;10.70;98.00;;;;;;5015331;28;20022;-81
2023/12/29 11:39:48;;;;;;;29.95;19.17;;;10.70;98.00;;;;;;5013996;28;20034;-82
2023/12/29 11:42:31;;;;;;;32.83;20.92;;;10.70;98.00;;;;;;5013717;28;20472;-82
2023/12/29 11:44:57;;;;;;;34.17;22.63;;;10.70;98.00;;;;;;5014989;28;20121;-82
2023/12/29 11:47:37;;;;;;;28.50;19.20;;;10.80;98.00;;;;;;5009648;28;20117;-82
2023/12/29 11:50:03;;;;;;;29.25;20.55;;;10.80;98.00;;;;;;5009303;28;20038;-82
2023/12/29 11:52:36;;;;;;;26.00;19.02;;;10.80;98.10;;;;;;5007417;28;20457;-82
2023/12/29 11:55:12;;;;;;;26.38;18.25;;;10.90;98.00;;;;;;5011952;28;20035;-82
2023/12/29 11:57:40;;;;;;;27.90;17.77;;;10.90;98.00;;;;;;5020320;28;20025;-82
2023/12/29 12:00:07;;;;;;;35.92;21.42;;;11.00;98.00;;;;;;5011414;28;20179;-82
2023/12/29 12:02:32;;;;;;;27.20;17.13;;;11.00;97.90;;;;;;5014427;28;20038;-83
2023/12/29 12:07:25;;;;;;;34.10;20.83;;;10.90;97.90;;;;;;5026707;28;20057;-88
2023/12/29 12:09:53;;;;;;;40.03;27.90;;;10.90;98.00;;;;;;5035875;28;20040;-88
2023/12/29 12:12:40;;;;;;;23.02;15.95;;;11.00;97.90;;;;;;5028396;28;20025;-88
2023/12/29 12:15:31;;;;;;;21.83;14.07;;;10.90;97.90;;;;;;5036879;28;20061;-87
2023/12/29 12:18:04;;;;;;;31.17;18.55;;;10.90;97.80;;;;;;5035041;28;20038;-88
2023/12/29 12:20:30;;;;;;;26.33;16.98;;;11.00;97.90;;;;;;5036708;28;20146;-88
2023/12/29 12:23:07;;;;;;;32.40;22.08;;;11.00;97.80;;;;;;5041173;28;20036;-88
2023/12/29 12:25:34;;;;;;;31.35;20.85;;;11.00;97.80;;;;;;5055844;28;20060;-88
2023/12/29 12:28:04;;;;;;;32.28;22.73;;;11.00;97.70;;;;;;5055225;28;20025;-88
2023/12/29 12:30:30;;;;;;;35.75;24.95;;;11.10;97.60;;;;;;5039796;28;20029;-88